sensor_id;sensor_type;location;lat;lon;timestamp;pressure;altitude;pressure_sealevel;temperature;humidity
64211;BME280;50528;48.514;14.394;2023-02-19T00:00:10;94084.40;;;7.98;87.49
64211;BME280;50528;48.514;14.394;2023-02-19T00:01:12;94084.55;;;7.92;87.83
64211;BME280;50528;48.514;14.394;2023-02-19T00:01:50;94081.17;;;7.91;87.96
64211;BME280;50528;48.514;14.394;2023-02-19T00:02:24;94084.69;;;7.93;88.09
64211;BME280;50528;48.514;14.394;2023-02-19T00:02:58;94081.09;;;8.04;87.53
64211;BME280;50528;48.514;14.394;2023-02-19T00:03:31;94080.20;;;7.96;87.60
64211;BME280;50528;48.514;14.394;2023-02-19T00:04:07;94080.04;;;7.96;87.74
64211;BME280;50528;48.514;14.394;2023-02-19T00:04:42;94085.48;;;7.98;87.84
64211;BME280;50528;48.514;14.394;2023-02-19T00:05:16;94081.95;;;8.01;87.55
64211;BME280;50528;48.514;14.394;2023-02-19T00:05:50;94080.34;;;7.97;87.47
64211;BME280;50528;48.514;14.394;2023-02-19T00:06:25;94079.39;;;7.94;87.69
64211;BME280;50528;48.514;14.394;2023-02-19T00:06:59;94080.97;;;7.99;87.75
64211;BME280;50528;48.514;14.394;2023-02-19T00:07:32;94081.55;;;7.95;87.83
64211;BME280;50528;48.514;14.394;2023-02-19T00:08:07;94080.31;;;7.96;87.71
64211;BME280;50528;48.514;14.394;2023-02-19T00:08:41;94074.70;;;7.95;87.80
64211;BME280;50528;48.514;14.394;2023-02-19T00:09:16;94078.12;;;7.94;87.82
64211;BME280;50528;48.514;14.394;2023-02-19T00:09:54;94074.98;;;7.94;87.81
64211;BME280;50528;48.514;14.394;2023-02-19T00:10:27;94071.23;;;7.93;87.88
64211;BME280;50528;48.514;14.394;2023-02-19T00:11:02;94072.34;;;7.95;87.75
64211;BME280;50528;48.514;14.394;2023-02-19T00:11:37;94066.95;;;7.89;87.72
64211;BME280;50528;48.514;14.394;2023-02-19T00:12:11;94065.40;;;7.92;87.98
64211;BME280;50528;48.514;14.394;2023-02-19T00:12:45;94066.08;;;7.96;87.71
64211;BME280;50528;48.514;14.394;2023-02-19T00:13:18;94060.06;;;7.97;87.44
64211;BME280;50528;48.514;14.394;2023-02-19T00:13:53;94064.02;;;7.98;87.54
64211;BME280;50528;48.514;14.394;2023-02-19T00:14:28;94063.08;;;8.00;87.25
64211;BME280;50528;48.514;14.394;2023-02-19T00:15:01;94061.35;;;7.92;87.47
64211;BME280;50528;48.514;14.394;2023-02-19T00:15:35;94066.09;;;7.90;87.88
64211;BME280;50528;48.514;14.394;2023-02-19T00:16:12;94060.95;;;7.92;87.64
64211;BME280;50528;48.514;14.394;2023-02-19T00:16:47;94063.73;;;7.91;87.66
64211;BME280;50528;48.514;14.394;2023-02-19T00:17:21;94063.09;;;7.94;87.76
64211;BME280;50528;48.514;14.394;2023-02-19T00:17:54;94058.27;;;8.04;87.07
64211;BME280;50528;48.514;14.394;2023-02-19T00:18:28;94064.43;;;8.04;87.25
64211;BME280;50528;48.514;14.394;2023-02-19T00:19:04;94062.23;;;8.00;87.08
64211;BME280;50528;48.514;14.394;2023-02-19T00:19:38;94061.89;;;7.98;86.98
64211;BME280;50528;48.514;14.394;2023-02-19T00:20:12;94061.34;;;7.95;87.12
64211;BME280;50528;48.514;14.394;2023-02-19T00:20:46;94063.09;;;7.94;87.37
64211;BME280;50528;48.514;14.394;2023-02-19T00:21:20;94056.52;;;7.91;87.24
64211;BME280;50528;48.514;14.394;2023-02-19T00:21:57;94052.09;;;7.89;87.41
64211;BME280;50528;48.514;14.394;2023-02-19T00:22:30;94059.14;;;7.95;87.48
64211;BME280;50528;48.514;14.394;2023-02-19T00:23:04;94060.52;;;8.00;87.05
64211;BME280;50528;48.514;14.394;2023-02-19T00:23:38;94056.50;;;7.98;86.80
64211;BME280;50528;48.514;14.394;2023-02-19T00:24:13;94055.45;;;7.94;86.96
64211;BME280;50528;48.514;14.394;2023-02-19T00:24:47;94058.64;;;7.90;87.09
64211;BME280;50528;48.514;14.394;2023-02-19T00:25:21;94061.53;;;7.84;87.44
64211;BME280;50528;48.514;14.394;2023-02-19T00:26:00;94052.52;;;7.84;87.53
64211;BME280;50528;48.514;14.394;2023-02-19T00:26:50;94058.12;;;7.87;87.52
64211;BME280;50528;48.514;14.394;2023-02-19T00:27:24;94058.95;;;7.88;87.37
64211;BME280;50528;48.514;14.394;2023-02-19T00:27:57;94049.48;;;7.78;87.52
64211;BME280;50528;48.514;14.394;2023-02-19T00:28:31;94060.66;;;7.82;87.71
64211;BME280;50528;48.514;14.394;2023-02-19T00:29:05;94058.90;;;7.80;87.78
64211;BME280;50528;48.514;14.394;2023-02-19T00:29:39;94061.07;;;7.86;87.63
64211;BME280;50528;48.514;14.394;2023-02-19T00:30:13;94062.84;;;7.86;87.78
64211;BME280;50528;48.514;14.394;2023-02-19T00:30:47;94061.35;;;7.87;87.70
64211;BME280;50528;48.514;14.394;2023-02-19T00:31:28;94062.52;;;7.82;87.83
64211;BME280;50528;48.514;14.394;2023-02-19T00:32:05;94066.92;;;7.83;87.80
64211;BME280;50528;48.514;14.394;2023-02-19T00:32:39;94062.05;;;7.83;87.73
64211;BME280;50528;48.514;14.394;2023-02-19T00:33:16;94060.80;;;7.86;87.67
64211;BME280;50528;48.514;14.394;2023-02-19T00:33:51;94061.67;;;7.87;87.60
64211;BME280;50528;48.514;14.394;2023-02-19T00:34:25;94065.55;;;7.83;87.77
64211;BME280;50528;48.514;14.394;2023-02-19T00:34:59;94070.21;;;7.87;87.66
64211;BME280;50528;48.514;14.394;2023-02-19T00:35:34;94073.27;;;7.87;87.68
64211;BME280;50528;48.514;14.394;2023-02-19T00:36:07;94068.91;;;7.88;87.51
64211;BME280;50528;48.514;14.394;2023-02-19T00:36:42;94068.46;;;7.85;87.68
64211;BME280;50528;48.514;14.394;2023-02-19T00:37:15;94070.38;;;7.81;87.94
64211;BME280;50528;48.514;14.394;2023-02-19T00:37:49;94062.58;;;7.79;87.89
64211;BME280;50528;48.514;14.394;2023-02-19T00:38:23;94064.02;;;7.78;87.95
64211;BME280;50528;48.514;14.394;2023-02-19T00:38:56;94063.93;;;7.76;88.06
64211;BME280;50528;48.514;14.394;2023-02-19T00:39:30;94062.75;;;7.77;88.12
64211;BME280;50528;48.514;14.394;2023-02-19T00:40:04;94065.02;;;7.74;88.02
64211;BME280;50528;48.514;14.394;2023-02-19T00:40:38;94062.94;;;7.74;88.30
64211;BME280;50528;48.514;14.394;2023-02-19T00:41:13;94063.33;;;7.86;88.08
64211;BME280;50528;48.514;14.394;2023-02-19T00:41:53;94067.86;;;7.79;88.09
64211;BME280;50528;48.514;14.394;2023-02-19T00:42:27;94064.76;;;7.83;87.96
64211;BME280;50528;48.514;14.394;2023-02-19T00:43:00;94068.02;;;7.77;88.00
64211;BME280;50528;48.514;14.394;2023-02-19T00:43:34;94060.22;;;7.76;88.01
64211;BME280;50528;48.514;14.394;2023-02-19T00:44:09;94057.45;;;7.75;88.15
64211;BME280;50528;48.514;14.394;2023-02-19T00:44:43;94049.59;;;7.70;88.23
64211;BME280;50528;48.514;14.394;2023-02-19T00:45:17;94058.48;;;7.73;88.17
64211;BME280;50528;48.514;14.394;2023-02-19T00:45:51;94069.39;;;7.84;88.26
64211;BME280;50528;48.514;14.394;2023-02-19T00:46:28;94067.05;;;7.88;87.71
64211;BME280;50528;48.514;14.394;2023-02-19T00:47:02;94071.80;;;7.82;87.84
64211;BME280;50528;48.514;14.394;2023-02-19T00:47:36;94063.97;;;7.80;88.16
64211;BME280;50528;48.514;14.394;2023-02-19T00:48:11;94062.20;;;7.86;87.81
64211;BME280;50528;48.514;14.394;2023-02-19T00:48:45;94062.77;;;7.80;87.97
64211;BME280;50528;48.514;14.394;2023-02-19T00:49:22;94066.91;;;7.72;88.26
64211;BME280;50528;48.514;14.394;2023-02-19T00:49:56;94064.83;;;7.69;88.35
64211;BME280;50528;48.514;14.394;2023-02-19T00:50:29;94060.77;;;7.71;88.63
64211;BME280;50528;48.514;14.394;2023-02-19T00:51:03;94057.77;;;7.75;88.42
64211;BME280;50528;48.514;14.394;2023-02-19T00:51:37;94057.63;;;7.77;88.33
64211;BME280;50528;48.514;14.394;2023-02-19T00:52:11;94061.99;;;7.79;88.33
64211;BME280;50528;48.514;14.394;2023-02-19T00:52:44;94060.91;;;7.86;87.87
64211;BME280;50528;48.514;14.394;2023-02-19T00:53:18;94059.02;;;7.75;88.27
64211;BME280;50528;48.514;14.394;2023-02-19T00:53:52;94061.23;;;7.74;88.24
64211;BME280;50528;48.514;14.394;2023-02-19T00:54:26;94054.43;;;7.75;88.29
64211;BME280;50528;48.514;14.394;2023-02-19T00:55:00;94054.15;;;7.73;88.24
64211;BME280;50528;48.514;14.394;2023-02-19T00:55:33;94051.06;;;7.74;88.34
64211;BME280;50528;48.514;14.394;2023-02-19T00:56:08;94054.31;;;7.70;88.36
64211;BME280;50528;48.514;14.394;2023-02-19T00:56:41;94049.77;;;7.73;88.40
64211;BME280;50528;48.514;14.394;2023-02-19T00:57:15;94048.13;;;7.73;88.30
64211;BME280;50528;48.514;14.394;2023-02-19T00:57:48;94044.64;;;7.71;88.36
64211;BME280;50528;48.514;14.394;2023-02-19T00:58:22;94047.88;;;7.74;88.31
64211;BME280;50528;48.514;14.394;2023-02-19T00:58:56;94050.71;;;7.73;88.35
64211;BME280;50528;48.514;14.394;2023-02-19T00:59:30;94048.93;;;7.82;88.13
64211;BME280;50528;48.514;14.394;2023-02-19T01:00:04;94044.20;;;7.76;88.28
64211;BME280;50528;48.514;14.394;2023-02-19T01:00:38;94048.11;;;7.76;88.32
64211;BME280;50528;48.514;14.394;2023-02-19T01:01:12;94052.17;;;7.75;88.42
64211;BME280;50528;48.514;14.394;2023-02-19T01:01:46;94050.79;;;7.74;88.32
64211;BME280;50528;48.514;14.394;2023-02-19T01:02:22;94050.03;;;7.73;88.51
64211;BME280;50528;48.514;14.394;2023-02-19T01:02:55;94053.36;;;7.73;88.48
64211;BME280;50528;48.514;14.394;2023-02-19T01:03:34;94046.79;;;7.75;88.40
64211;BME280;50528;48.514;14.394;2023-02-19T01:04:09;94047.60;;;7.77;88.55
64211;BME280;50528;48.514;14.394;2023-02-19T01:04:42;94040.23;;;7.86;88.02
64211;BME280;50528;48.514;14.394;2023-02-19T01:05:16;94043.82;;;7.80;88.13
64211;BME280;50528;48.514;14.394;2023-02-19T01:05:50;94048.59;;;7.81;88.15
64211;BME280;50528;48.514;14.394;2023-02-19T01:06:24;94048.55;;;7.76;88.15
64211;BME280;50528;48.514;14.394;2023-02-19T01:06:58;94048.32;;;7.80;88.27
64211;BME280;50528;48.514;14.394;2023-02-19T01:07:35;94050.31;;;7.76;88.22
64211;BME280;50528;48.514;14.394;2023-02-19T01:08:09;94051.02;;;7.75;88.47
64211;BME280;50528;48.514;14.394;2023-02-19T01:08:43;94051.21;;;7.72;88.38
64211;BME280;50528;48.514;14.394;2023-02-19T01:09:17;94048.51;;;7.71;88.46
64211;BME280;50528;48.514;14.394;2023-02-19T01:09:54;94043.23;;;7.71;88.42
64211;BME280;50528;48.514;14.394;2023-02-19T01:10:31;94044.73;;;7.75;88.56
64211;BME280;50528;48.514;14.394;2023-02-19T01:11:06;94041.76;;;7.75;88.40
64211;BME280;50528;48.514;14.394;2023-02-19T01:11:41;94040.90;;;7.76;88.37
64211;BME280;50528;48.514;14.394;2023-02-19T01:12:14;94044.26;;;7.88;88.05
64211;BME280;50528;48.514;14.394;2023-02-19T01:12:48;94038.73;;;7.89;87.80
64211;BME280;50528;48.514;14.394;2023-02-19T01:13:22;94042.23;;;7.80;88.02
64211;BME280;50528;48.514;14.394;2023-02-19T01:13:56;94039.29;;;7.76;88.11
64211;BME280;50528;48.514;14.394;2023-02-19T01:14:31;94039.46;;;7.75;88.53
64211;BME280;50528;48.514;14.394;2023-02-19T01:15:05;94040.00;;;7.74;88.55
64211;BME280;50528;48.514;14.394;2023-02-19T01:15:39;94043.69;;;7.75;88.41
64211;BME280;50528;48.514;14.394;2023-02-19T01:16:18;94037.86;;;7.79;88.55
64211;BME280;50528;48.514;14.394;2023-02-19T01:16:52;94036.02;;;7.72;88.53
64211;BME280;50528;48.514;14.394;2023-02-19T01:17:26;94035.51;;;7.72;88.60
64211;BME280;50528;48.514;14.394;2023-02-19T01:18:00;94033.61;;;7.70;88.70
64211;BME280;50528;48.514;14.394;2023-02-19T01:18:34;94034.16;;;7.77;88.53
64211;BME280;50528;48.514;14.394;2023-02-19T01:19:08;94029.37;;;7.69;88.54
64211;BME280;50528;48.514;14.394;2023-02-19T01:19:42;94039.92;;;7.77;88.63
64211;BME280;50528;48.514;14.394;2023-02-19T01:20:16;94030.67;;;7.76;88.43
64211;BME280;50528;48.514;14.394;2023-02-19T01:20:49;94032.45;;;7.75;88.46
64211;BME280;50528;48.514;14.394;2023-02-19T01:21:25;94032.30;;;7.74;88.47
64211;BME280;50528;48.514;14.394;2023-02-19T01:21:59;94035.94;;;7.73;88.74
64211;BME280;50528;48.514;14.394;2023-02-19T01:22:35;94026.25;;;7.72;88.66
64211;BME280;50528;48.514;14.394;2023-02-19T01:23:12;94023.29;;;7.75;88.71
64211;BME280;50528;48.514;14.394;2023-02-19T01:23:46;94027.30;;;7.75;88.46
64211;BME280;50528;48.514;14.394;2023-02-19T01:24:20;94025.83;;;7.74;88.60
64211;BME280;50528;48.514;14.394;2023-02-19T01:24:54;94030.48;;;7.75;88.54
64211;BME280;50528;48.514;14.394;2023-02-19T01:25:28;94027.20;;;7.74;88.60
64211;BME280;50528;48.514;14.394;2023-02-19T01:26:06;94025.85;;;7.75;88.60
64211;BME280;50528;48.514;14.394;2023-02-19T01:26:39;94025.63;;;7.74;88.64
64211;BME280;50528;48.514;14.394;2023-02-19T01:27:13;94019.33;;;7.78;88.47
64211;BME280;50528;48.514;14.394;2023-02-19T01:27:47;94021.52;;;7.77;88.53
64211;BME280;50528;48.514;14.394;2023-02-19T01:28:22;94019.02;;;7.78;88.56
64211;BME280;50528;48.514;14.394;2023-02-19T01:28:56;94019.90;;;7.85;88.32
64211;BME280;50528;48.514;14.394;2023-02-19T01:29:30;94024.76;;;7.81;88.37
64211;BME280;50528;48.514;14.394;2023-02-19T01:30:04;94021.06;;;7.80;88.23
64211;BME280;50528;48.514;14.394;2023-02-19T01:30:38;94024.86;;;7.75;88.36
64211;BME280;50528;48.514;14.394;2023-02-19T01:31:15;94020.36;;;7.73;88.45
64211;BME280;50528;48.514;14.394;2023-02-19T01:31:49;94022.86;;;7.73;88.55
64211;BME280;50528;48.514;14.394;2023-02-19T01:32:23;94023.83;;;7.76;88.56
64211;BME280;50528;48.514;14.394;2023-02-19T01:32:56;94019.70;;;7.74;88.56
64211;BME280;50528;48.514;14.394;2023-02-19T01:33:30;94020.49;;;7.76;88.60
64211;BME280;50528;48.514;14.394;2023-02-19T01:34:04;94020.88;;;7.77;88.62
64211;BME280;50528;48.514;14.394;2023-02-19T01:34:38;94020.84;;;7.74;88.65
64211;BME280;50528;48.514;14.394;2023-02-19T01:35:12;94017.04;;;7.72;88.56
64211;BME280;50528;48.514;14.394;2023-02-19T01:35:45;94017.59;;;7.76;88.63
64211;BME280;50528;48.514;14.394;2023-02-19T01:36:19;94009.41;;;7.77;88.57
64211;BME280;50528;48.514;14.394;2023-02-19T01:36:53;94011.28;;;7.83;88.47
64211;BME280;50528;48.514;14.394;2023-02-19T01:37:27;94011.10;;;7.84;88.18
64211;BME280;50528;48.514;14.394;2023-02-19T01:38:01;94015.59;;;7.84;88.23
64211;BME280;50528;48.514;14.394;2023-02-19T01:38:35;94011.77;;;7.86;88.08
64211;BME280;50528;48.514;14.394;2023-02-19T01:39:09;94013.64;;;7.87;88.00
64211;BME280;50528;48.514;14.394;2023-02-19T01:39:42;94015.61;;;7.94;87.78
64211;BME280;50528;48.514;14.394;2023-02-19T01:40:16;94011.66;;;8.11;86.89
64211;BME280;50528;48.514;14.394;2023-02-19T01:40:55;94010.07;;;7.98;87.04
64211;BME280;50528;48.514;14.394;2023-02-19T01:41:29;94007.61;;;7.83;87.42
64211;BME280;50528;48.514;14.394;2023-02-19T01:42:06;94005.59;;;7.81;87.93
64211;BME280;50528;48.514;14.394;2023-02-19T01:42:45;94009.58;;;7.81;87.93
64211;BME280;50528;48.514;14.394;2023-02-19T01:43:18;94004.06;;;7.76;88.05
64211;BME280;50528;48.514;14.394;2023-02-19T01:45:58;94005.31;;;7.68;88.62
64211;BME280;50528;48.514;14.394;2023-02-19T01:46:34;93998.73;;;7.67;88.54
64211;BME280;50528;48.514;14.394;2023-02-19T01:47:09;94005.36;;;7.72;88.45
64211;BME280;50528;48.514;14.394;2023-02-19T01:47:44;94004.04;;;7.67;88.48
64211;BME280;50528;48.514;14.394;2023-02-19T01:48:19;94000.49;;;7.67;88.63
64211;BME280;50528;48.514;14.394;2023-02-19T01:48:57;94002.58;;;7.67;88.57
64211;BME280;50528;48.514;14.394;2023-02-19T01:49:40;94004.30;;;7.69;88.87
64211;BME280;50528;48.514;14.394;2023-02-19T01:50:22;94000.85;;;7.67;88.99
64211;BME280;50528;48.514;14.394;2023-02-19T01:51:01;93998.92;;;7.67;88.70
64211;BME280;50528;48.514;14.394;2023-02-19T01:51:44;94001.86;;;7.65;88.90
64211;BME280;50528;48.514;14.394;2023-02-19T01:52:56;94003.64;;;7.65;88.91
64211;BME280;50528;48.514;14.394;2023-02-19T01:53:32;94003.97;;;7.66;89.04
64211;BME280;50528;48.514;14.394;2023-02-19T01:54:09;94002.13;;;7.69;88.76
64211;BME280;50528;48.514;14.394;2023-02-19T01:54:47;93995.66;;;7.67;88.85
64211;BME280;50528;48.514;14.394;2023-02-19T01:55:22;93996.51;;;7.67;88.87
64211;BME280;50528;48.514;14.394;2023-02-19T01:55:59;94000.05;;;7.67;89.03
64211;BME280;50528;48.514;14.394;2023-02-19T01:56:35;93995.38;;;7.68;88.81
64211;BME280;50528;48.514;14.394;2023-02-19T01:57:17;93995.42;;;7.66;88.89
64211;BME280;50528;48.514;14.394;2023-02-19T01:57:54;93995.30;;;7.67;88.79
64211;BME280;50528;48.514;14.394;2023-02-19T01:58:30;93993.25;;;7.71;88.88
64211;BME280;50528;48.514;14.394;2023-02-19T01:59:06;93994.19;;;7.66;88.66
64211;BME280;50528;48.514;14.394;2023-02-19T01:59:40;93992.87;;;7.68;88.84
64211;BME280;50528;48.514;14.394;2023-02-19T02:00:15;93986.50;;;7.64;88.88
64211;BME280;50528;48.514;14.394;2023-02-19T02:00:51;93987.37;;;7.68;88.86
64211;BME280;50528;48.514;14.394;2023-02-19T02:01:25;93990.01;;;7.67;88.99
64211;BME280;50528;48.514;14.394;2023-02-19T02:01:59;93993.83;;;7.69;88.98
64211;BME280;50528;48.514;14.394;2023-02-19T02:02:38;93987.48;;;7.68;88.88
64211;BME280;50528;48.514;14.394;2023-02-19T02:03:12;93988.42;;;7.66;88.98
64211;BME280;50528;48.514;14.394;2023-02-19T02:03:47;93986.64;;;7.68;88.98
64211;BME280;50528;48.514;14.394;2023-02-19T02:04:21;93987.99;;;7.69;89.03
64211;BME280;50528;48.514;14.394;2023-02-19T02:04:57;93977.23;;;7.65;88.91
64211;BME280;50528;48.514;14.394;2023-02-19T02:05:46;93980.41;;;7.68;89.00
64211;BME280;50528;48.514;14.394;2023-02-19T02:06:32;93981.56;;;7.68;88.84
64211;BME280;50528;48.514;14.394;2023-02-19T02:07:06;93984.11;;;7.67;88.92
64211;BME280;50528;48.514;14.394;2023-02-19T02:08:01;93984.09;;;7.64;88.98
64211;BME280;50528;48.514;14.394;2023-02-19T02:08:56;93976.77;;;7.64;89.07
64211;BME280;50528;48.514;14.394;2023-02-19T02:09:48;93976.73;;;7.63;88.98
64211;BME280;50528;48.514;14.394;2023-02-19T02:10:42;93978.23;;;7.60;88.99
64211;BME280;50528;48.514;14.394;2023-02-19T02:11:16;93977.93;;;7.61;89.08
64211;BME280;50528;48.514;14.394;2023-02-19T02:11:51;93973.30;;;7.61;89.10
64211;BME280;50528;48.514;14.394;2023-02-19T02:12:25;93973.48;;;7.63;89.09
64211;BME280;50528;48.514;14.394;2023-02-19T02:12:59;93972.18;;;7.64;89.16
64211;BME280;50528;48.514;14.394;2023-02-19T02:13:33;93966.71;;;7.66;89.22
64211;BME280;50528;48.514;14.394;2023-02-19T02:14:08;93967.67;;;7.67;89.13
64211;BME280;50528;48.514;14.394;2023-02-19T02:14:44;93963.30;;;7.68;89.03
64211;BME280;50528;48.514;14.394;2023-02-19T02:15:19;93963.09;;;7.68;88.99
64211;BME280;50528;48.514;14.394;2023-02-19T02:18:16;93956.69;;;7.64;89.09
64211;BME280;50528;48.514;14.394;2023-02-19T02:20:22;93957.63;;;7.62;89.16
64211;BME280;50528;48.514;14.394;2023-02-19T02:22:00;93944.66;;;7.65;89.06
64211;BME280;50528;48.514;14.394;2023-02-19T02:25:56;93934.59;;;7.62;89.09
64211;BME280;50528;48.514;14.394;2023-02-19T02:29:13;93934.57;;;7.55;89.19
64211;BME280;50528;48.514;14.394;2023-02-19T02:30:40;93929.31;;;7.59;89.23
64211;BME280;50528;48.514;14.394;2023-02-19T02:31:34;93927.56;;;7.63;89.20
64211;BME280;50528;48.514;14.394;2023-02-19T02:32:15;93928.83;;;7.57;89.24
64211;BME280;50528;48.514;14.394;2023-02-19T02:33:23;93927.19;;;7.56;89.27
64211;BME280;50528;48.514;14.394;2023-02-19T02:35:43;93924.33;;;7.52;89.47
64211;BME280;50528;48.514;14.394;2023-02-19T02:36:23;93924.80;;;7.52;89.74
64211;BME280;50528;48.514;14.394;2023-02-19T02:37:00;93925.73;;;7.53;89.66
64211;BME280;50528;48.514;14.394;2023-02-19T02:37:38;93918.73;;;7.57;89.54
64211;BME280;50528;48.514;14.394;2023-02-19T02:38:14;93921.70;;;7.54;89.61
64211;BME280;50528;48.514;14.394;2023-02-19T02:38:50;93927.11;;;7.61;89.64
64211;BME280;50528;48.514;14.394;2023-02-19T02:39:27;93919.79;;;7.68;89.35
64211;BME280;50528;48.514;14.394;2023-02-19T02:40:03;93917.80;;;7.71;89.18
64211;BME280;50528;48.514;14.394;2023-02-19T02:40:41;93920.98;;;7.72;89.08
64211;BME280;50528;48.514;14.394;2023-02-19T02:41:16;93917.29;;;7.69;89.18
64211;BME280;50528;48.514;14.394;2023-02-19T02:41:55;93921.04;;;7.64;89.47
64211;BME280;50528;48.514;14.394;2023-02-19T02:42:48;93925.23;;;7.55;89.63
64211;BME280;50528;48.514;14.394;2023-02-19T02:43:21;93918.17;;;7.59;89.52
64211;BME280;50528;48.514;14.394;2023-02-19T02:43:56;93918.55;;;7.63;89.41
64211;BME280;50528;48.514;14.394;2023-02-19T02:44:34;93911.94;;;7.62;89.65
64211;BME280;50528;48.514;14.394;2023-02-19T02:46:20;93924.50;;;7.56;89.88
64211;BME280;50528;48.514;14.394;2023-02-19T02:46:55;93918.52;;;7.54;89.88
64211;BME280;50528;48.514;14.394;2023-02-19T02:47:33;93922.09;;;7.58;89.88
64211;BME280;50528;48.514;14.394;2023-02-19T02:48:57;93915.27;;;7.75;89.30
64211;BME280;50528;48.514;14.394;2023-02-19T02:50:55;93901.13;;;7.58;89.74
64211;BME280;50528;48.514;14.394;2023-02-19T02:51:36;93903.83;;;7.53;89.59
64211;BME280;50528;48.514;14.394;2023-02-19T02:52:13;93902.71;;;7.54;89.71
64211;BME280;50528;48.514;14.394;2023-02-19T02:53:20;93901.71;;;7.54;89.61
64211;BME280;50528;48.514;14.394;2023-02-19T02:54:23;93892.22;;;7.49;89.78
64211;BME280;50528;48.514;14.394;2023-02-19T02:55:18;93896.50;;;7.46;89.72
64211;BME280;50528;48.514;14.394;2023-02-19T02:55:52;93890.23;;;7.46;89.84
64211;BME280;50528;48.514;14.394;2023-02-19T02:56:27;93888.40;;;7.48;89.84
64211;BME280;50528;48.514;14.394;2023-02-19T02:57:03;93889.81;;;7.51;89.95
64211;BME280;50528;48.514;14.394;2023-02-19T02:57:39;93883.74;;;7.55;89.55
64211;BME280;50528;48.514;14.394;2023-02-19T02:58:15;93890.20;;;7.56;89.79
64211;BME280;50528;48.514;14.394;2023-02-19T02:58:51;93888.27;;;7.55;89.81
64211;BME280;50528;48.514;14.394;2023-02-19T02:59:29;93890.21;;;7.59;89.66
64211;BME280;50528;48.514;14.394;2023-02-19T03:00:05;93889.44;;;7.57;89.56
64211;BME280;50528;48.514;14.394;2023-02-19T03:00:42;93889.94;;;7.63;89.70
64211;BME280;50528;48.514;14.394;2023-02-19T03:02:01;93882.08;;;7.57;89.56
64211;BME280;50528;48.514;14.394;2023-02-19T03:02:47;93881.35;;;7.55;89.79
64211;BME280;50528;48.514;14.394;2023-02-19T03:03:23;93889.73;;;7.67;89.47
64211;BME280;50528;48.514;14.394;2023-02-19T03:04:03;93887.60;;;7.61;89.57
64211;BME280;50528;48.514;14.394;2023-02-19T03:05:51;93882.68;;;7.52;89.93
64211;BME280;50528;48.514;14.394;2023-02-19T03:06:29;93886.02;;;7.56;89.99
64211;BME280;50528;48.514;14.394;2023-02-19T03:07:06;93877.21;;;7.57;89.82
64211;BME280;50528;48.514;14.394;2023-02-19T03:09:17;93880.55;;;7.57;89.67
64211;BME280;50528;48.514;14.394;2023-02-19T03:09:46;93879.42;;;7.53;90.16
64211;BME280;50528;48.514;14.394;2023-02-19T03:10:38;93877.70;;;7.51;90.32
64211;BME280;50528;48.514;14.394;2023-02-19T03:11:13;93878.85;;;7.54;90.23
64211;BME280;50528;48.514;14.394;2023-02-19T03:12:10;93879.43;;;7.54;90.30
64211;BME280;50528;48.514;14.394;2023-02-19T03:13:08;93880.02;;;7.57;90.14
64211;BME280;50528;48.514;14.394;2023-02-19T03:14:14;93873.14;;;7.53;90.41
64211;BME280;50528;48.514;14.394;2023-02-19T03:15:08;93878.84;;;7.60;90.48
64211;BME280;50528;48.514;14.394;2023-02-19T03:16:08;93876.14;;;7.58;90.35
64211;BME280;50528;48.514;14.394;2023-02-19T03:17:17;93867.14;;;7.53;90.52
64211;BME280;50528;48.514;14.394;2023-02-19T03:18:13;93871.55;;;7.53;90.94
64211;BME280;50528;48.514;14.394;2023-02-19T03:19:07;93876.23;;;7.53;90.83
64211;BME280;50528;48.514;14.394;2023-02-19T03:19:55;93870.56;;;7.52;91.02
64211;BME280;50528;48.514;14.394;2023-02-19T03:20:33;93874.59;;;7.52;90.95
64211;BME280;50528;48.514;14.394;2023-02-19T03:21:09;93877.52;;;7.55;91.09
64211;BME280;50528;48.514;14.394;2023-02-19T03:22:05;93875.95;;;7.57;90.92
64211;BME280;50528;48.514;14.394;2023-02-19T03:22:44;93871.17;;;7.52;91.02
64211;BME280;50528;48.514;14.394;2023-02-19T03:23:19;93870.61;;;7.55;91.02
64211;BME280;50528;48.514;14.394;2023-02-19T03:24:16;93865.98;;;7.62;91.10
64211;BME280;50528;48.514;14.394;2023-02-19T03:25:18;93874.61;;;7.58;90.97
64211;BME280;50528;48.514;14.394;2023-02-19T03:26:13;93868.02;;;7.53;91.10
64211;BME280;50528;48.514;14.394;2023-02-19T03:26:52;93860.38;;;7.53;91.28
64211;BME280;50528;48.514;14.394;2023-02-19T03:27:29;93858.98;;;7.52;91.23
64211;BME280;50528;48.514;14.394;2023-02-19T03:28:08;93856.92;;;7.53;91.18
64211;BME280;50528;48.514;14.394;2023-02-19T03:28:44;93853.91;;;7.52;91.30
64211;BME280;50528;48.514;14.394;2023-02-19T03:29:41;93851.83;;;7.52;91.10
64211;BME280;50528;48.514;14.394;2023-02-19T03:30:20;93857.55;;;7.53;91.32
64211;BME280;50528;48.514;14.394;2023-02-19T03:30:56;93857.46;;;7.58;91.30
64211;BME280;50528;48.514;14.394;2023-02-19T03:31:32;93853.00;;;7.60;91.13
64211;BME280;50528;48.514;14.394;2023-02-19T03:32:31;93848.89;;;7.58;91.35
64211;BME280;50528;48.514;14.394;2023-02-19T03:33:21;93854.96;;;7.54;91.15
64211;BME280;50528;48.514;14.394;2023-02-19T03:34:02;93850.23;;;7.56;91.43
64211;BME280;50528;48.514;14.394;2023-02-19T03:34:46;93852.41;;;7.55;91.32
64211;BME280;50528;48.514;14.394;2023-02-19T03:35:23;93860.23;;;7.54;91.32
64211;BME280;50528;48.514;14.394;2023-02-19T03:36:01;93859.88;;;7.56;91.51
64211;BME280;50528;48.514;14.394;2023-02-19T03:36:42;93856.71;;;7.62;91.49
64211;BME280;50528;48.514;14.394;2023-02-19T03:37:32;93854.75;;;7.64;91.13
64211;BME280;50528;48.514;14.394;2023-02-19T03:38:16;93846.45;;;7.62;91.33
64211;BME280;50528;48.514;14.394;2023-02-19T03:39:02;93846.30;;;7.60;91.21
64211;BME280;50528;48.514;14.394;2023-02-19T03:39:36;93856.58;;;7.58;91.30
64211;BME280;50528;48.514;14.394;2023-02-19T03:40:20;93857.48;;;7.62;91.44
64211;BME280;50528;48.514;14.394;2023-02-19T03:41:50;93865.83;;;7.63;91.36
64211;BME280;50528;48.514;14.394;2023-02-19T03:42:28;93860.69;;;7.63;91.51